Time;durP1;ratioP1;P1;durP2;ratioP2;P2;SDS_P1;SDS_P2;PMS_P1;PMS_P2;Temp;Humidity;BMP_temperature;BMP_pressure;BME280_temperature;BME280_humidity;BME280_pressure;Samples;Min_cycle;Max_cycle;Signal;HPM_P1;HPM_P2
2021/08/22 00:01:43;;;;;;;6.90;2.88;;;;;;;;;;6067379;23;19998;-87
2021/08/22 00:04:09;;;;;;;5.53;2.40;;;;;;;;;;6067079;23;20011;-87
2021/08/22 00:06:35;;;;;;;3.38;2.15;;;;;;;;;;6066620;23;20010;-88
2021/08/22 00:09:01;;;;;;;5.63;2.42;;;;;;;;;;6066176;23;20439;-87
2021/08/22 00:11:27;;;;;;;3.42;2.22;;;;;;;;;;6041141;23;20002;-87
2021/08/22 00:13:53;;;;;;;4.32;1.95;;;;;;;;;;6066856;23;20013;-88
2021/08/22 00:16:19;;;;;;;3.60;2.20;;;;;;;;;;6041094;23;20054;-87
2021/08/22 00:18:45;;;;;;;5.47;2.63;;;;;;;;;;6041196;23;20010;-87
2021/08/22 00:21:11;;;;;;;3.03;1.60;;;;;;;;;;6041434;23;20339;-88
2021/08/22 00:23:36;;;;;;;4.30;2.28;;;;;;;;;;6066892;23;20007;-88
2021/08/22 00:26:03;;;;;;;5.63;3.60;;;;;;;;;;6066828;23;20006;-86
2021/08/22 00:28:29;;;;;;;4.18;2.47;;;;;;;;;;6066184;23;20019;-87
2021/08/22 00:30:55;;;;;;;10.40;2.47;;;;;;;;;;6041180;23;20548;-89
2021/08/22 00:33:21;;;;;;;5.38;2.63;;;;;;;;;;6066833;23;20013;-86
2021/08/22 00:35:47;;;;;;;3.28;1.73;;;;;;;;;;6041353;23;20003;-87
2021/08/22 00:38:14;;;;;;;4.60;1.90;;;;;;;;;;6041098;23;20058;-87
2021/08/22 00:40:40;;;;;;;3.03;2.00;;;;;;;;;;6066114;23;20061;-87
2021/08/22 00:43:09;;;;;;;3.03;2.13;;;;;;;;;;6066872;23;20015;-88
2021/08/22 00:45:37;;;;;;;9.93;3.13;;;;;;;;;;6066564;23;20018;-87
2021/08/22 00:48:04;;;;;;;12.77;3.25;;;;;;;;;;6040784;23;20010;-87
2021/08/22 00:50:30;;;;;;;3.00;2.00;;;;;;;;;;6040694;23;20034;-87
2021/08/22 00:52:56;;;;;;;4.22;2.35;;;;;;;;;;6066437;23;20014;-87
2021/08/22 00:55:22;;;;;;;6.13;2.45;;;;;;;;;;6066087;23;20009;-87
2021/08/22 00:57:49;;;;;;;5.10;2.60;;;22.20;70.10;;;;;;6066840;23;20011;-87
2021/08/22 01:00:16;;;;;;;3.80;2.03;;;;;;;;;;6066810;23;20007;-87
2021/08/22 01:02:52;;;;;;;5.22;3.03;;;;;;;;;;6041023;23;20054;-87
2021/08/22 01:05:26;;;;;;;8.35;2.50;;;22.30;69.50;;;;;;6066470;23;20354;-87
2021/08/22 01:07:52;;;;;;;3.95;1.90;;;;;;;;;;6040689;23;20632;-90
2021/08/22 01:10:23;;;;;;;7.05;2.50;;;22.30;69.30;;;;;;6065937;23;20007;-88
2021/08/22 01:13:00;;;;;;;5.63;2.75;;;22.40;70.30;;;;;;6040981;23;20374;-88
2021/08/22 01:15:30;;;;;;;3.28;2.15;;;22.40;69.80;;;;;;6041063;23;20042;-86
2021/08/22 01:17:56;;;;;;;13.82;3.20;;;;;;;;;;6041157;23;20443;-87
2021/08/22 01:20:51;;;;;;;6.88;3.75;;;22.40;70.20;;;;;;6040984;23;20018;-87
2021/08/22 01:23:17;;;;;;;4.82;2.10;;;;;;;;;;5978431;24;20449;-87
2021/08/22 01:25:45;;;;;;;3.08;2.15;;;22.50;69.60;;;;;;5978412;24;20076;-86
2021/08/22 01:28:11;;;;;;;6.05;3.47;;;;;;;;;;5954780;24;20024;-88
2021/08/22 01:30:42;;;;;;;4.40;2.78;;;;;;;;;;5978674;24;20087;-86
2021/08/22 01:33:11;;;;;;;7.93;2.75;;;22.50;69.40;;;;;;5978705;24;20417;-88
2021/08/22 01:35:38;;;;;;;3.10;1.92;;;;;;;;;;5955145;24;20008;-86
2021/08/22 01:38:05;;;;;;;5.88;2.70;;;22.50;69.90;;;;;;5978136;24;20057;-88
2021/08/22 01:40:31;;;;;;;4.25;1.88;;;;;;;;;;5954063;24;20015;-87
2021/08/22 01:42:58;;;;;;;3.67;2.17;;;;;;;;;;5978145;24;20087;-89
2021/08/22 01:45:25;;;;;;;5.05;2.28;;;22.40;69.80;;;;;;5978243;24;20078;-88
2021/08/22 01:47:52;;;;;;;5.75;2.55;;;;;;;;;;5978065;24;20027;-86
2021/08/22 01:50:21;;;;;;;7.13;2.33;;;22.50;68.50;;;;;;5978326;24;20043;-88
2021/08/22 01:52:47;;;;;;;3.83;2.20;;;;;;;;;;5977754;24;20072;-87
2021/08/22 01:55:13;;;;;;;3.27;2.63;;;;;;;;;;5978151;24;20436;-88
2021/08/22 01:57:42;;;;;;;5.18;2.25;;;;;;;;;;5977458;24;20004;-87
2021/08/22 02:00:08;;;;;;;2.25;1.67;;;;;;;;;;6017863;23;20038;-86
2021/08/22 02:02:34;;;;;;;4.63;2.10;;;;;;;;;;6066267;23;20010;-87
2021/08/22 02:05:03;;;;;;;7.43;2.42;;;;;;;;;;6040437;23;20351;-87
2021/08/22 02:07:30;;;;;;;8.52;1.77;;;;;;;;;;6065849;23;20003;-87
2021/08/22 02:09:56;;;;;;;4.90;2.13;;;;;;;;;;6065762;23;20066;-87
2021/08/22 02:12:22;;;;;;;9.00;2.03;;;;;;;;;;6066079;23;20007;-87
2021/08/22 02:15:05;;;;;;;3.58;2.13;;;22.30;67.50;;;;;;6065970;23;20049;-87
2021/08/22 02:17:34;;;;;;;5.22;1.80;;;;;;;;;;6040338;23;20423;-89
2021/08/22 02:20:02;;;;;;;4.82;2.65;;;22.20;67.70;;;;;;6065947;23;19999;-87
2021/08/22 02:22:29;;;;;;;4.80;1.85;;;22.20;66.80;;;;;;6065394;23;20445;-88
2021/08/22 02:24:57;;;;;;;2.78;1.27;;;;;;;;;;6040578;23;20011;-88
2021/08/22 02:27:23;;;;;;;7.75;2.28;;;;;;;;;;6065385;23;20014;-88
2021/08/22 02:29:49;;;;;;;6.40;2.00;;;;;;;;;;6065532;23;20517;-87
2021/08/22 02:32:16;;;;;;;3.85;1.73;;;;;;;;;;6066211;23;20082;-87
2021/08/22 02:34:42;;;;;;;7.68;2.35;;;;;;;;;;6066081;23;20014;-87
2021/08/22 02:37:08;;;;;;;5.35;2.90;;;;;;;;;;6040017;23;20805;-87
2021/08/22 02:39:35;;;;;;;3.85;1.65;;;;;;;;;;6040221;23;20011;-88
2021/08/22 02:42:01;;;;;;;;;;;22.40;69.10;;;;;;6065987;23;20509;-87
2021/08/22 02:44:27;;;;;;;15.13;2.40;;;;;;;;;;6040387;23;19905;-87
2021/08/22 02:46:53;;;;;;;2.88;1.70;;;;;;;;;;6065705;23;20036;-87
2021/08/22 02:49:19;;;;;;;4.07;2.15;;;;;;;;;;6040148;23;20062;-88
2021/08/22 02:51:45;;;;;;;3.88;2.25;;;;;;;;;;6065672;23;20527;-88
2021/08/22 02:54:11;;;;;;;4.22;2.60;;;;;;;;;;6066008;23;20030;-88
2021/08/22 02:56:37;;;;;;;5.88;1.80;;;;;;;;;;6040434;23;20434;-87
2021/08/22 02:59:03;;;;;;;3.65;1.85;;;;;;;;;;6040347;23;20026;-87
2021/08/22 03:01:29;;;;;;;4.22;1.60;;;;;;;;;;6040255;23;20112;-87
2021/08/22 03:03:55;;;;;;;4.07;2.15;;;;;;;;;;6040411;23;20018;-86
2021/08/22 03:06:21;;;;;;;2.35;1.63;;;;;;;;;;6065043;23;20006;-88
2021/08/22 03:08:47;;;;;;;3.30;1.35;;;;;;;;;;6065559;23;20015;-87
2021/08/22 03:11:16;;;;;;;2.50;1.80;;;;;;;;;;6065487;23;20074;-88
2021/08/22 03:13:42;;;;;;;2.13;1.10;;;;;;;;;;6065886;23;20030;-88
2021/08/22 03:16:08;;;;;;;4.43;1.52;;;;;;;;;;6065744;23;19999;-86
2021/08/22 03:18:34;;;;;;;3.83;1.30;;;;;;;;;;6040075;23;20011;-87
2021/08/22 03:21:00;;;;;;;1.90;1.00;;;;;;;;;;6065346;23;20002;-87
2021/08/22 03:23:26;;;;;;;2.05;1.17;;;;;;;;;;6065258;23;20046;-87
2021/08/22 03:25:52;;;;;;;2.53;1.42;;;;;;;;;;6039531;23;20003;-87
2021/08/22 03:28:18;;;;;;;3.88;2.47;;;;;;;;;;6064767;23;20018;-87
2021/08/22 03:30:44;;;;;;;4.78;1.23;;;;;;;;;;6065441;23;20009;-87
2021/08/22 03:33:10;;;;;;;3.05;1.48;;;;;;;;;;6040128;23;20039;-87
2021/08/22 03:35:36;;;;;;;4.28;1.38;;;;;;;;;;6065046;23;20011;-88
2021/08/22 03:38:02;;;;;;;3.03;1.27;;;;;;;;;;6065386;23;20002;-87
2021/08/22 03:40:28;;;;;;;3.08;1.42;;;;;;;;;;6064751;23;20459;-86
2021/08/22 03:42:54;;;;;;;2.30;1.20;;;;;;;;;;6039453;23;20015;-87
2021/08/22 03:45:20;;;;;;;2.38;1.40;;;;;;;;;;6065130;23;20010;-87
2021/08/22 03:47:46;;;;;;;3.60;1.80;;;;;;;;;;6065358;23;20042;-87
2021/08/22 03:50:12;;;;;;;2.78;2.40;;;;;;;;;;6065458;23;20427;-87
2021/08/22 03:52:38;;;;;;;2.25;1.40;;;;;;;;;;6039816;23;20082;-87
2021/08/22 03:55:04;;;;;;;1.92;1.30;;;;;;;;;;6039626;23;20002;-88
2021/08/22 03:57:30;;;;;;;1.80;1.20;;;;;;;;;;6039580;23;20094;-87
2021/08/22 03:59:56;;;;;;;5.28;2.10;;;;;;;;;;6039854;23;20097;-88
2021/08/22 04:02:23;;;;;;;2.47;1.00;;;;;;;;;;6064991;23;20364;-86
2021/08/22 04:04:49;;;;;;;4.72;1.60;;;;;;;;;;6041361;23;20446;-87
2021/08/22 04:07:15;;;;;;;2.28;1.23;;;;;;;;;;6041370;23;20014;-87
2021/08/22 04:09:41;;;;;;;4.55;2.53;;;;;;;;;;6041487;23;20010;-87
2021/08/22 04:12:07;;;;;;;2.63;1.25;;;;;;;;;;6067073;23;20534;-88
2021/08/22 04:14:33;;;;;;;2.70;1.10;;;;;;;;;;6041808;23;20097;-87
2021/08/22 04:16:59;;;;;;;2.83;2.03;;;;;;;;;;6041577;23;20037;-87
2021/08/22 04:19:25;;;;;;;3.38;1.15;;;;;;;;;;6041408;23;20034;-87
2021/08/22 04:21:51;;;;;;;2.13;1.10;;;;;;;;;;6066626;23;20006;-88
2021/08/22 04:24:17;;;;;;;4.32;1.17;;;;;;;;;;6067005;23;20007;-87
2021/08/22 04:26:44;;;;;;;3.90;1.63;;;;;;;;;;6066885;23;20011;-86
2021/08/22 04:29:10;;;;;;;2.60;1.08;;;;;;;;;;6041627;23;20517;-87
2021/08/22 04:31:36;;;;;;;3.33;1.15;;;;;;;;;;6067208;23;20734;-89
2021/08/22 04:34:02;;;;;;;2.90;1.33;;;;;;;;;;6041105;23;20450;-87
2021/08/22 04:36:28;;;;;;;2.95;1.30;;;;;;;;;;6041078;23;20081;-88
2021/08/22 04:38:54;;;;;;;3.55;1.48;;;;;;;;;;6041317;23;20335;-88
2021/08/22 04:41:21;;;;;;;3.67;1.77;;;;;;;;;;6066177;23;20081;-87
2021/08/22 04:43:47;;;;;;;2.58;1.10;;;;;;;;;;6041203;23;20014;-86
2021/08/22 04:46:14;;;;;;;3.30;2.07;;;;;;;;;;6041231;23;20320;-86
2021/08/22 04:48:40;;;;;;;2.28;1.20;;;;;;;;;;6066277;23;20258;-89
2021/08/22 04:51:07;;;;;;;3.35;1.58;;;;;;;;;;6041210;23;20654;-87
2021/08/22 04:53:33;;;;;;;2.88;1.65;;;;;;;;;;6067181;23;20474;-87
2021/08/22 04:55:59;;;;;;;1.90;1.40;;;;;;;;;;6040892;23;20002;-86
2021/08/22 04:58:25;;;;;;;2.33;1.75;;;;;;;;;;6041199;23;20247;-88
2021/08/22 05:00:51;;;;;;;2.42;1.50;;;;;;;;;;6066273;23;20014;-87
2021/08/22 05:03:17;;;;;;;5.80;1.00;;;;;;;;;;6041125;23;20011;-88
2021/08/22 05:05:43;;;;;;;2.53;1.17;;;;;;;;;;6066262;23;19999;-86
2021/08/22 05:08:09;;;;;;;1.88;1.25;;;;;;;;;;6066372;23;20093;-86
2021/08/22 05:10:36;;;;;;;3.90;0.90;;;;;;;;;;6065914;23;20589;-88
2021/08/22 05:13:02;;;;;;;2.78;1.00;;;;;;;;;;6066121;23;20007;-87
2021/08/22 05:15:28;;;;;;;7.50;2.35;;;;;;;;;;6040382;23;20526;-86
2021/08/22 05:17:54;;;;;;;3.05;1.02;;;;;;;;;;6066482;23;19999;-87
2021/08/22 05:20:20;;;;;;;6.35;1.80;;;;;;;;;;6040681;23;20042;-87
2021/08/22 05:22:46;;;;;;;4.85;0.98;;;;;;;;;;6041092;23;20070;-86
2021/08/22 05:25:12;;;;;;;2.67;1.10;;;;;;;;;;6041159;23;20007;-87
2021/08/22 05:27:38;;;;;;;5.38;1.45;;;;;;;;;;6040645;23;20085;-88
2021/08/22 05:30:05;;;;;;;1.92;1.48;;;;;;;;;;6066011;23;20078;-87
2021/08/22 05:32:31;;;;;;;2.85;1.83;;;;;;;;;;6066060;23;20579;-87
2021/08/22 05:34:57;;;;;;;1.35;1.08;;;;;;;;;;6066208;23;20473;-87
2021/08/22 05:37:23;;;;;;;4.15;1.23;;;;;;;;;;6066124;23;20007;-87
2021/08/22 05:39:50;;;;;;;2.42;1.75;;;;;;;;;;6066077;23;20007;-87
2021/08/22 05:42:16;;;;;;;2.45;1.50;;;;;;;;;;6065330;23;20023;-87
2021/08/22 05:44:42;;;;;;;2.70;1.17;;;;;;;;;;6065806;23;20018;-86
2021/08/22 05:47:08;;;;;;;2.17;1.60;;;;;;;;;;6040490;23;20094;-87
2021/08/22 05:49:40;;;;;;;1.73;0.80;;;21.80;62.50;;;;;;6065907;23;20022;-86
2021/08/22 05:52:08;;;;;;;2.38;1.00;;;;;;;;;;6040672;23;20010;-87
2021/08/22 05:54:34;;;;;;;5.13;1.40;;;;;;;;;;6066320;23;20138;-88
2021/08/22 05:57:00;;;;;;;2.28;1.63;;;;;;;;;;6039250;23;20039;-87
2021/08/22 05:59:26;;;;;;;2.83;1.13;;;;;;;;;;6039601;23;20380;-87
2021/08/22 06:01:52;;;;;;;2.13;1.05;;;;;;;;;;6039166;23;20017;-87
2021/08/22 06:04:18;;;;;;;2.28;1.42;;;;;;;;;;6039400;23;20011;-86
2021/08/22 06:06:45;;;;;;;4.70;1.88;;;;;;;;;;6064929;23;20331;-88
2021/08/22 06:09:11;;;;;;;;;;;;;;;;;;6065215;23;20101;-88
2021/08/22 06:11:37;;;;;;;4.65;1.52;;;;;;;;;;6039566;23;20300;-87
2021/08/22 06:14:03;;;;;;;1.92;1.35;;;;;;;;;;6064629;23;20007;-87
2021/08/22 06:16:29;;;;;;;6.03;1.33;;;;;;;;;;6039317;23;20027;-86
2021/08/22 06:18:57;;;;;;;4.53;1.55;;;;;;;;;;6038966;23;20007;-87
2021/08/22 06:21:23;;;;;;;2.70;1.67;;;;;;;;;;6065081;23;20062;-85
2021/08/22 06:23:49;;;;;;;2.55;1.00;;;;;;;;;;6064339;23;20387;-87
2021/08/22 06:26:15;;;;;;;1.08;0.70;;;;;;;;;;6064334;23;20058;-86
2021/08/22 06:28:41;;;;;;;3.00;1.15;;;;;;;;;;6064757;23;20023;-88
2021/08/22 06:31:07;;;;;;;2.92;1.15;;;;;;;;;;6039296;23;20499;-87
2021/08/22 06:33:33;;;;;;;3.38;1.75;;;;;;;;;;6038620;23;20017;-86
2021/08/22 06:36:03;;;;;;;2.47;1.02;;;;;;;;;;6039739;23;20002;-87
2021/08/22 06:38:30;;;;;;;4.75;1.45;;;;;;;;;;6036657;23;20014;-81
2021/08/22 06:40:56;;;;;;;5.00;1.33;;;;;;;;;;6060696;23;20026;-81
2021/08/22 06:43:22;;;;;;;1.33;1.00;;;;;;;;;;6061102;23;20442;-81
2021/08/22 06:45:48;;;;;;;3.08;1.23;;;;;;;;;;6061160;23;20386;-81
2021/08/22 06:48:14;;;;;;;4.15;0.82;;;;;;;;;;6061675;23;20015;-81
2021/08/22 06:50:43;;;;;;;2.83;1.13;;;;;;;;;;6035696;23;20022;-82
2021/08/22 06:53:09;;;;;;;2.38;1.20;;;;;;;;;;6060399;23;20032;-82
2021/08/22 06:55:35;;;;;;;2.85;1.27;;;;;;;;;;6055430;23;20015;-81
2021/08/22 06:58:01;;;;;;;2.55;1.65;;;;;;;;;;6061017;23;20003;-81
2021/08/22 07:00:27;;;;;;;1.17;0.80;;;;;;;;;;6060937;23;20339;-81
2021/08/22 07:02:53;;;;;;;2.85;1.20;;;;;;;;;;6061327;23;20007;-82
2021/08/22 07:05:19;;;;;;;2.97;1.65;;;;;;;;;;6061492;23;20014;-82
2021/08/22 07:07:45;;;;;;;3.63;1.42;;;;;;;;;;6061169;23;20021;-82
2021/08/22 07:10:11;;;;;;;3.75;1.27;;;;;;;;;;6035560;23;20442;-82
2021/08/22 07:12:37;;;;;;;3.47;1.52;;;;;;;;;;6061333;23;20014;-82
2021/08/22 07:15:04;;;;;;;4.88;1.08;;;;;;;;;;6061282;23;20015;-83
2021/08/22 07:17:30;;;;;;;4.07;1.42;;;;;;;;;;6061139;23;20018;-81
2021/08/22 07:19:56;;;;;;;4.38;1.20;;;;;;;;;;6060962;23;20074;-82
2021/08/22 07:22:22;;;;;;;7.72;1.10;;;;;;;;;;6061109;23;20042;-82
2021/08/22 07:24:48;;;;;;;1.90;0.98;;;;;;;;;;6060965;23;20006;-81
2021/08/22 07:27:14;;;;;;;1.83;1.08;;;;;;;;;;6060893;23;20017;-81
2021/08/22 07:29:40;;;;;;;2.53;1.30;;;;;;;;;;6035597;23;20101;-81
2021/08/22 07:32:06;;;;;;;3.22;0.70;;;;;;;;;;6060879;23;19999;-81
2021/08/22 07:34:32;;;;;;;2.33;0.98;;;;;;;;;;6035908;23;20030;-81
2021/08/22 07:36:58;;;;;;;2.40;0.90;;;;;;;;;;6035556;23;20439;-81
2021/08/22 07:39:24;;;;;;;7.55;1.33;;;;;;;;;;6035010;23;20007;-82
2021/08/22 07:41:50;;;;;;;1.45;0.80;;;;;;;;;;6062482;23;20038;-82
2021/08/22 07:44:16;;;;;;;3.47;1.40;;;;;;;;;;6063732;23;20421;-82
2021/08/22 07:46:42;;;;;;;2.20;0.57;;;;;;;;;;6063513;23;20007;-82
2021/08/22 07:49:08;;;;;;;5.55;0.57;;;;;;;;;;6063707;23;20022;-82
2021/08/22 07:51:34;;;;;;;1.23;0.73;;;;;;;;;;6063976;23;20036;-82
2021/08/22 07:54:00;;;;;;;2.20;0.90;;;;;;;;;;6063186;23;20035;-82
2021/08/22 07:56:26;;;;;;;2.67;0.65;;;;;;;;;;6063594;23;20447;-82
2021/08/22 07:58:52;;;;;;;9.98;1.38;;;;;;;;;;6063950;23;20074;-82
2021/08/22 08:01:18;;;;;;;3.55;1.02;;;;;;;;;;6062878;23;20010;-82
2021/08/22 08:03:44;;;;;;;2.60;0.80;;;;;;;;;;6062683;23;20034;-82
2021/08/22 08:06:10;;;;;;;2.58;0.88;;;;;;;;;;6062828;23;20007;-82
2021/08/22 08:08:36;;;;;;;2.88;0.55;;;;;;;;;;6061976;23;20425;-82
2021/08/22 08:11:03;;;;;;;1.77;0.95;;;;;;;;;;6062025;23;20034;-82
2021/08/22 08:13:29;;;;;;;2.28;0.77;;;;;;;;;;6063166;23;20014;-82
2021/08/22 08:15:55;;;;;;;1.42;0.68;;;;;;;;;;6062332;23;20458;-82
2021/08/22 08:18:21;;;;;;;3.15;0.75;;;;;;;;;;6062987;23;20025;-82
2021/08/22 08:20:47;;;;;;;2.28;0.85;;;;;;;;;;6062661;23;19999;-82
2021/08/22 08:23:13;;;;;;;1.38;0.77;;;;;;;;;;6062784;23;20371;-81
2021/08/22 08:25:39;;;;;;;0.90;0.52;;;;;;;;;;6062432;23;20083;-82
2021/08/22 08:28:05;;;;;;;2.47;0.95;;;;;;;;;;6062545;23;20015;-82
2021/08/22 08:30:32;;;;;;;2.03;0.60;;;;;;;;;;6062231;23;20007;-82
2021/08/22 08:32:58;;;;;;;1.92;1.23;;;;;;;;;;6062352;23;20401;-83
2021/08/22 08:35:24;;;;;;;2.50;0.77;;;;;;;;;;6063201;23;20034;-82
2021/08/22 08:37:50;;;;;;;2.33;1.05;;;;;;;;;;6063173;23;20003;-82
2021/08/22 08:40:17;;;;;;;1.15;0.50;;;27.40;46.00;;;;;;6062451;23;20439;-82
2021/08/22 08:42:55;;;;;;;1.23;0.50;;;;;;;;;;6062698;23;20442;-82
2021/08/22 08:45:33;;;;;;;0.98;0.70;;;;;;;;;;6062459;23;20007;-82
2021/08/22 08:47:59;;;;;;;5.22;1.13;;;;;;;;;;6062818;23;20011;-82
2021/08/22 08:50:29;;;;;;;3.30;1.02;;;27.40;45.50;;;;;;6064176;23;20015;-84
2021/08/22 08:53:02;;;;;;;2.63;1.30;;;;;;;;;;6064339;23;20007;-82
2021/08/22 08:55:33;;;;;;;4.78;1.40;;;;;;;;;;6063818;23;20011;-84
2021/08/22 08:57:59;;;;;;;5.43;2.03;;;;;;;;;;6063479;23;20025;-83
2021/08/22 09:00:27;;;;;;;4.93;2.47;;;27.10;46.40;;;;;;6062985;23;20054;-83
2021/08/22 09:02:52;;;;;;;;;;;;;;;;;;6064333;23;20010;-82
2021/08/22 09:05:48;;;;;;;6.50;1.90;;;26.90;48.20;;;;;;6063713;23;19909;-83
2021/08/22 09:08:33;;;;;;;8.73;2.92;;;;;;;;;;6063398;23;20116;-82
2021/08/22 09:11:36;;;;;;;5.57;2.22;;;26.80;66.70;;;;;;6063026;23;20090;-82
2021/08/22 09:14:39;;;;;;;8.68;2.47;;;26.60;47.10;;;;;;6063472;23;20015;-83
2021/08/22 09:17:23;;;;;;;7.30;2.55;;;;;;;;;;6063610;23;20572;-82
2021/08/22 09:20:26;;;;;;;5.70;2.88;;;26.80;47.40;;;;;;6063407;23;20018;-83
2021/08/22 09:23:34;;;;;;;3.03;1.38;;;26.80;47.90;;;;;;6062380;23;20517;-82
2021/08/22 09:26:21;;;;;;;4.00;1.30;;;26.90;48.40;;;;;;5975228;24;20016;-82
2021/08/22 09:29:20;;;;;;;7.22;1.35;;;26.80;47.30;;;;;;5974695;24;20511;-83
2021/08/22 09:32:23;;;;;;;4.30;1.30;;;26.70;48.90;;;;;;5974780;24;20676;-82
2021/08/22 09:35:13;;;;;;;3.40;1.38;;;26.90;48.40;;;;;;5974854;24;20015;-83
2021/08/22 09:38:27;;;;;;;5.38;1.30;;;27.20;50.00;;;;;;5974154;24;20099;-83
2021/08/22 09:41:04;;;;;;;1.67;0.80;;;27.50;48.90;;;;;;5891163;24;20097;-83
2021/08/22 09:43:49;;;;;;;2.22;0.95;;;;;;;;;;5892211;24;20014;-83
2021/08/22 09:46:42;;;;;;;0.82;0.60;;;27.80;47.20;;;;;;5891938;24;20504;-83
2021/08/22 09:49:27;;;;;;;2.42;1.15;;;27.80;46.80;;;;;;5891782;24;20086;-82
2021/08/22 09:52:35;;;;;;;2.17;1.05;;;27.80;47.20;;;;;;5891225;24;20110;-82
2021/08/22 09:55:36;;;;;;;1.52;1.30;;;;;;;;;;5891687;24;20459;-83
2021/08/22 09:58:32;;;;;;;2.47;1.10;;;27.90;66.00;;;;;;5811548;24;20007;-83
2021/08/22 10:01:04;;;;;;;5.72;0.82;;;;;;;;;;5811229;24;20493;-83
2021/08/22 10:03:57;;;;;;;2.05;0.88;;;28.20;46.40;;;;;;5806821;24;20017;-83
2021/08/22 10:06:47;;;;;;;3.08;0.93;;;28.20;45.40;;;;;;5837608;24;20047;-82
2021/08/22 10:09:27;;;;;;;2.80;1.40;;;28.30;45.60;;;;;;5837990;24;20470;-83
2021/08/22 10:12:03;;;;;;;2.13;1.42;;;28.50;47.00;;;;;;5815055;24;20826;-83
2021/08/22 10:14:29;;;;;;;2.70;1.30;;;;;;;;;;5839316;24;20375;-84
2021/08/22 10:16:56;;;;;;;3.33;1.02;;;;;;;;;;5863744;24;20013;-83
2021/08/22 10:19:28;;;;;;;2.22;1.20;;;29.60;50.50;;;;;;5896550;24;20558;-82
2021/08/22 10:22:25;;;;;;;2.55;1.33;;;29.60;45.30;;;;;;5919500;24;20013;-86
2021/08/22 10:24:59;;;;;;;1.70;1.00;;;29.60;42.70;;;;;;5919115;24;20009;-84
2021/08/22 10:27:34;;;;;;;1.83;1.08;;;29.70;49.80;;;;;;5919300;24;20043;-93
2021/08/22 10:30:03;;;;;;;3.83;1.20;;;;;;;;;;5928630;24;20087;-96
2021/08/22 10:32:29;;;;;;;1.73;1.00;;;;;;;;;;6025105;23;20014;-95
2021/08/22 10:35:13;;;;;;;2.08;1.02;;;29.80;43.90;;;;;;6069221;23;20014;-93
2021/08/22 10:37:40;;;;;;;1.85;0.93;;;29.90;42.10;;;;;;6069549;23;20078;-94
2021/08/22 10:40:30;;;;;;;;;;;30.00;43.10;;;;;;6041781;23;20063;-93
2021/08/22 10:43:05;;;;;;;2.53;1.20;;;;;;;;;;6066825;23;19988;-94
2021/08/22 10:45:43;;;;;;;2.13;1.00;;;;;;;;;;6067513;23;20399;-91
2021/08/22 10:48:10;;;;;;;2.40;1.33;;;;;;;;;;6066708;23;20598;-94
2021/08/22 10:51:08;;;;;;;1.95;1.08;;;29.80;42.70;;;;;;6066860;23;20002;-94
2021/08/22 10:53:35;;;;;;;1.48;0.73;;;;;;;;;;6049779;23;20085;-94
2021/08/22 10:56:22;;;;;;;2.08;0.77;;;29.60;46.00;;;;;;6066793;23;20014;-94
2021/08/22 10:59:04;;;;;;;2.30;1.10;;;29.60;61.80;;;;;;6041221;23;20085;-94
2021/08/22 11:01:31;;;;;;;1.90;0.98;;;29.90;62.20;;;;;;6066800;23;20010;-94
2021/08/22 11:04:08;;;;;;;1.75;0.98;;;30.00;42.70;;;;;;6066239;23;20011;-94
2021/08/22 11:06:35;;;;;;;;;;;29.90;41.40;;;;;;6066858;23;20074;-94
2021/08/22 11:09:00;;;;;;;4.07;0.90;;;29.60;62.40;;;;;;6040661;23;19972;-93
2021/08/22 11:11:27;;;;;;;2.25;0.88;;;;;;;;;;6041454;23;20007;-94
2021/08/22 11:13:55;;;;;;;2.05;0.90;;;29.90;43.10;;;;;;6068771;23;20011;-94
2021/08/22 11:16:21;;;;;;;1.08;0.68;;;;;;;;;;6043234;23;20560;-95
2021/08/22 11:18:47;;;;;;;4.10;1.80;;;30.00;42.60;;;;;;6043012;23;20007;-87
2021/08/22 11:21:14;;;;;;;2.30;1.13;;;;;;;;;;6082466;23;20089;-94
2021/08/22 11:23:40;;;;;;;2.92;1.00;;;;;;;;;;6079248;23;20010;-96
2021/08/22 11:26:07;;;;;;;28.88;1.63;;;;;;;;;;6045434;23;20030;-88
2021/08/22 11:28:34;;;;;;;1.27;0.85;;;;;;;;;;6042634;23;20018;-94
2021/08/22 11:31:00;;;;;;;2.77;0.97;;;;;;;;;;6060013;23;20001;-95
2021/08/22 11:33:35;;;;;;;4.40;0.82;;;;;;;;;;6041658;23;20057;-95
2021/08/22 11:36:03;;;;;;;0.98;0.50;;;28.60;43.50;;;;;;6087617;23;20437;-95
2021/08/22 11:38:29;;;;;;;2.03;0.80;;;;;;;;;;6051523;23;20010;-93
2021/08/22 11:41:03;;;;;;;4.03;1.38;;;28.30;45.40;;;;;;6067775;23;20108;-94
2021/08/22 11:43:30;;;;;;;1.80;0.73;;;28.10;44.00;;;;;;6068771;23;20013;-94
2021/08/22 11:45:56;;;;;;;2.45;0.90;;;;;;;;;;6043393;23;20010;-92
2021/08/22 11:48:24;;;;;;;1.75;0.77;;;;;;;;;;6044027;23;20014;-96
2021/08/22 11:50:51;;;;;;;1.80;0.90;;;27.90;42.30;;;;;;6068583;23;20442;-93
2021/08/22 11:53:18;;;;;;;1.40;0.73;;;27.90;43.00;;;;;;6043517;23;20058;-92
2021/08/22 11:55:45;;;;;;;4.63;1.45;;;27.80;44.50;;;;;;6068687;23;20006;-93
2021/08/22 11:58:14;;;;;;;2.00;0.90;;;27.90;45.60;;;;;;6042448;23;20414;-92
2021/08/22 12:00:52;;;;;;;2.13;0.80;;;;;;;;;;6068258;23;20074;-91
2021/08/22 12:03:23;;;;;;;1.45;0.70;;;28.10;47.00;;;;;;6043533;23;20007;-91
2021/08/22 12:06:07;;;;;;;2.20;1.08;;;28.10;63.90;;;;;;6071309;23;20082;-95
2021/08/22 12:08:34;;;;;;;1.98;1.08;;;;;;;;;;6068241;23;20046;-92
2021/08/22 12:11:10;;;;;;;4.95;0.75;;;28.30;47.60;;;;;;6070119;23;20074;-93
2021/08/22 12:13:41;;;;;;;5.30;1.23;;;28.30;45.20;;;;;;6043301;23;20014;-94
2021/08/22 12:16:22;;;;;;;2.20;0.63;;;28.40;44.00;;;;;;6070519;23;20010;-94
2021/08/22 12:18:48;;;;;;;3.35;1.35;;;;;;;;;;6073539;23;20007;-88
2021/08/22 12:21:19;;;;;;;2.45;0.77;;;28.30;43.80;;;;;;6082320;23;20059;-96
2021/08/22 12:23:50;;;;;;;1.60;1.25;;;;;;;;;;6084317;23;20007;-95
2021/08/22 12:26:25;;;;;;;2.50;0.90;;;28.20;64.20;;;;;;6078159;23;20062;-96
2021/08/22 12:29:07;;;;;;;1.17;0.63;;;28.20;43.10;;;;;;6077258;23;20025;-94
2021/08/22 12:31:35;;;;;;;2.15;0.90;;;28.00;43.00;;;;;;6052446;23;20062;-95
2021/08/22 12:34:06;;;;;;;1.88;0.60;;;28.00;43.60;;;;;;6050440;23;20453;-96
2021/08/22 12:36:37;;;;;;;1.83;0.88;;;;;;;;;;6052459;23;20067;-96
2021/08/22 12:39:06;;;;;;;2.50;1.00;;;27.90;47.20;;;;;;6055630;23;19995;-96
2021/08/22 12:41:52;;;;;;;1.85;0.82;;;27.80;45.90;;;;;;6078693;23;20019;-96
2021/08/22 12:44:45;;;;;;;3.15;0.90;;;27.70;46.60;;;;;;6089752;23;20007;-96
2021/08/22 12:47:58;;;;;;;2.33;1.00;;;27.60;49.10;;;;;;5972451;24;20012;-96
2021/08/22 13:26:04;;;;;;;1.30;1.05;;;;;;;;;;6083835;23;20037;-96
2021/08/22 13:36:17;;;;;;;1.52;0.82;;;;;;;;;;6109761;23;20034;-96
2021/08/22 13:38:43;;;;;;;1.13;0.85;;;;;;;;;;6115696;23;20034;-96
2021/08/22 13:41:09;;;;;;;0.77;0.38;;;;;;;;;;6117623;23;20017;-96
2021/08/22 13:43:35;;;;;;;1.85;0.85;;;;;;;;;;6095289;23;19991;-96
2021/08/22 13:46:01;;;;;;;0.98;0.52;;;;;;;;;;6095659;23;20037;-96
2021/08/22 13:48:27;;;;;;;1.83;1.13;;;;;;;;;;6090047;23;20021;-96
2021/08/22 13:50:53;;;;;;;1.00;0.70;;;;;;;;;;6114111;23;20093;-96
2021/08/22 13:53:20;;;;;;;2.58;0.55;;;;;;;;;;6118689;23;20037;-96
2021/08/22 13:55:46;;;;;;;1.17;0.70;;;;;;;;;;6115049;23;20070;-96
2021/08/22 13:58:12;;;;;;;1.30;0.60;;;;;;;;;;6109746;23;20007;-96
2021/08/22 14:00:38;;;;;;;1.58;0.43;;;;;;;;;;6103539;23;20085;-95
2021/08/22 14:03:05;;;;;;;0.55;0.40;;;;;;;;;;6085092;23;20016;-96
2021/08/22 14:05:32;;;;;;;;;;;27.50;48.00;;;;;;6111250;23;20030;-95
2021/08/22 14:07:59;;;;;;;2.40;1.05;;;;;;;;;;6117407;23;19913;-95
2021/08/22 14:10:25;;;;;;;1.05;0.60;;;;;;;;;;6114319;23;20013;-96
2021/08/22 14:12:51;;;;;;;2.00;0.80;;;;;;;;;;6114668;23;20003;-96
2021/08/22 14:15:17;;;;;;;1.02;0.63;;;;;;;;;;6101867;23;20018;-94
2021/08/22 14:17:43;;;;;;;1.67;0.82;;;;;;;;;;6101365;23;20007;-86
2021/08/22 14:20:10;;;;;;;1.27;0.82;;;;;;;;;;6097919;23;20010;-94
2021/08/22 14:22:36;;;;;;;1.52;0.88;;;;;;;;;;6096276;23;20104;-93
2021/08/22 14:25:03;;;;;;;1.00;0.60;;;;;;;;;;6095603;23;20010;-93
2021/08/22 14:27:29;;;;;;;0.88;0.40;;;;;;;;;;6070707;23;20014;-93
2021/08/22 14:29:55;;;;;;;1.60;0.75;;;;;;;;;;6070317;23;20024;-92
2021/08/22 14:32:21;;;;;;;1.35;0.77;;;;;;;;;;6096014;23;20010;-94
2021/08/22 14:34:47;;;;;;;1.73;0.70;;;;;;;;;;6095990;23;20528;-95
2021/08/22 14:37:13;;;;;;;1.90;0.75;;;;;;;;;;6096055;23;20007;-94
2021/08/22 14:39:39;;;;;;;1.05;0.40;;;;;;;;;;6095920;23;20006;-96
2021/08/22 14:42:06;;;;;;;2.00;0.95;;;27.10;50.90;;;;;;6095497;23;20049;-93
2021/08/22 14:44:32;;;;;;;0.90;0.47;;;;;;;;;;6096108;23;20027;-92
2021/08/22 14:46:59;;;;;;;1.13;0.60;;;;;;;;;;6095407;23;20442;-92
2021/08/22 14:49:26;;;;;;;1.45;0.50;;;;;;;;;;6070719;23;20262;-95
2021/08/22 14:51:52;;;;;;;2.40;1.00;;;;;;;;;;6096720;23;20014;-95
2021/08/22 14:54:18;;;;;;;1.10;0.52;;;;;;;;;;6096279;23;20081;-94
2021/08/22 14:56:44;;;;;;;1.70;0.52;;;;;;;;;;6096255;23;20006;-96
2021/08/22 14:59:10;;;;;;;1.95;0.50;;;;;;;;;;6070706;23;20058;-94
2021/08/22 15:01:36;;;;;;;1.58;0.70;;;;;;;;;;6070023;23;20379;-92
2021/08/22 15:04:02;;;;;;;1.10;0.50;;;;;;;;;;6096707;23;20313;-95
2021/08/22 15:06:28;;;;;;;1.70;0.82;;;;;;;;;;6096151;23;20338;-95
2021/08/22 15:08:54;;;;;;;2.83;0.65;;;;;;;;;;6095103;23;20026;-93
2021/08/22 15:11:20;;;;;;;2.78;0.80;;;;;;;;;;6070316;23;20006;-93
2021/08/22 15:13:46;;;;;;;0.55;0.35;;;;;;;;;;6095910;23;20009;-94